sensor_id;sensor_type;location;lat;lon;timestamp;temperature;humidity
67050;DHT22;53955;52.442;13.284;2023-04-15T00:01:20;10.90;85.60
67050;DHT22;53955;52.442;13.284;2023-04-15T00:03:49;10.80;85.80
67050;DHT22;53955;52.442;13.284;2023-04-15T00:06:18;10.90;85.90
67050;DHT22;53955;52.442;13.284;2023-04-15T00:08:44;10.80;86.20
67050;DHT22;53955;52.442;13.284;2023-04-15T00:11:12;10.80;85.90
67050;DHT22;53955;52.442;13.284;2023-04-15T00:13:39;10.80;86.10
67050;DHT22;53955;52.442;13.284;2023-04-15T00:16:06;10.80;86.20
67050;DHT22;53955;52.442;13.284;2023-04-15T00:18:34;10.80;86.20
67050;DHT22;53955;52.442;13.284;2023-04-15T00:21:01;10.80;86.00
67050;DHT22;53955;52.442;13.284;2023-04-15T00:23:29;10.80;86.10
67050;DHT22;53955;52.442;13.284;2023-04-15T00:25:55;10.80;85.70
67050;DHT22;53955;52.442;13.284;2023-04-15T00:28:22;10.80;86.10
67050;DHT22;53955;52.442;13.284;2023-04-15T00:30:49;11.00;86.20
67050;DHT22;53955;52.442;13.284;2023-04-15T00:33:15;10.80;86.20
67050;DHT22;53955;52.442;13.284;2023-04-15T00:35:43;10.90;85.90
67050;DHT22;53955;52.442;13.284;2023-04-15T00:38:09;10.80;85.80
67050;DHT22;53955;52.442;13.284;2023-04-15T00:40:38;11.00;86.30
67050;DHT22;53955;52.442;13.284;2023-04-15T00:43:05;11.00;86.20
67050;DHT22;53955;52.442;13.284;2023-04-15T00:45:32;11.10;85.70
67050;DHT22;53955;52.442;13.284;2023-04-15T00:47:59;11.00;85.50
67050;DHT22;53955;52.442;13.284;2023-04-15T00:50:25;11.00;85.60
67050;DHT22;53955;52.442;13.284;2023-04-15T00:52:52;10.90;85.60
67050;DHT22;53955;52.442;13.284;2023-04-15T00:55:18;10.90;85.50
67050;DHT22;53955;52.442;13.284;2023-04-15T00:57:46;11.00;86.20
67050;DHT22;53955;52.442;13.284;2023-04-15T01:00:13;10.90;85.50
67050;DHT22;53955;52.442;13.284;2023-04-15T01:02:41;10.90;86.00
67050;DHT22;53955;52.442;13.284;2023-04-15T01:05:07;11.00;86.00
67050;DHT22;53955;52.442;13.284;2023-04-15T01:07:34;10.90;85.70
67050;DHT22;53955;52.442;13.284;2023-04-15T01:10:01;10.90;85.80
67050;DHT22;53955;52.442;13.284;2023-04-15T01:12:28;10.90;85.40
67050;DHT22;53955;52.442;13.284;2023-04-15T01:14:59;10.90;86.00
67050;DHT22;53955;52.442;13.284;2023-04-15T01:17:26;10.90;85.50
67050;DHT22;53955;52.442;13.284;2023-04-15T01:19:54;10.90;85.90
67050;DHT22;53955;52.442;13.284;2023-04-15T01:22:21;10.80;86.10
67050;DHT22;53955;52.442;13.284;2023-04-15T01:24:54;10.90;85.70
67050;DHT22;53955;52.442;13.284;2023-04-15T01:27:24;10.90;86.00
67050;DHT22;53955;52.442;13.284;2023-04-15T01:29:51;11.00;85.40
67050;DHT22;53955;52.442;13.284;2023-04-15T01:32:18;10.90;86.10
67050;DHT22;53955;52.442;13.284;2023-04-15T01:34:45;11.00;85.40
67050;DHT22;53955;52.442;13.284;2023-04-15T01:37:11;11.00;85.60
67050;DHT22;53955;52.442;13.284;2023-04-15T01:39:38;10.80;85.80
67050;DHT22;53955;52.442;13.284;2023-04-15T01:42:05;10.90;85.80
67050;DHT22;53955;52.442;13.284;2023-04-15T01:44:33;10.90;85.90
67050;DHT22;53955;52.442;13.284;2023-04-15T01:46:59;10.90;85.80
67050;DHT22;53955;52.442;13.284;2023-04-15T01:49:26;10.90;86.20
67050;DHT22;53955;52.442;13.284;2023-04-15T01:51:53;10.90;86.20
67050;DHT22;53955;52.442;13.284;2023-04-15T01:54:20;10.90;85.90
67050;DHT22;53955;52.442;13.284;2023-04-15T01:56:46;10.90;86.00
67050;DHT22;53955;52.442;13.284;2023-04-15T01:59:13;10.80;85.80
67050;DHT22;53955;52.442;13.284;2023-04-15T02:01:41;10.90;85.90
67050;DHT22;53955;52.442;13.284;2023-04-15T02:04:08;11.00;85.90
67050;DHT22;53955;52.442;13.284;2023-04-15T02:06:40;11.00;86.00
67050;DHT22;53955;52.442;13.284;2023-04-15T02:09:07;11.00;85.50
67050;DHT22;53955;52.442;13.284;2023-04-15T02:11:34;11.00;85.80
67050;DHT22;53955;52.442;13.284;2023-04-15T02:14:01;10.90;85.70
67050;DHT22;53955;52.442;13.284;2023-04-15T02:16:28;11.00;86.30
67050;DHT22;53955;52.442;13.284;2023-04-15T02:18:56;11.00;86.00
67050;DHT22;53955;52.442;13.284;2023-04-15T02:21:24;11.10;85.70
67050;DHT22;53955;52.442;13.284;2023-04-15T02:23:51;11.00;85.90
67050;DHT22;53955;52.442;13.284;2023-04-15T02:26:18;11.00;85.80
67050;DHT22;53955;52.442;13.284;2023-04-15T02:28:45;11.10;85.60
67050;DHT22;53955;52.442;13.284;2023-04-15T02:31:12;11.00;85.30
67050;DHT22;53955;52.442;13.284;2023-04-15T02:33:39;10.90;85.60
67050;DHT22;53955;52.442;13.284;2023-04-15T02:36:07;11.00;85.60
67050;DHT22;53955;52.442;13.284;2023-04-15T02:38:35;11.00;85.60
67050;DHT22;53955;52.442;13.284;2023-04-15T02:41:02;11.00;85.90
67050;DHT22;53955;52.442;13.284;2023-04-15T02:43:29;11.00;85.40
67050;DHT22;53955;52.442;13.284;2023-04-15T02:45:55;11.10;85.70
67050;DHT22;53955;52.442;13.284;2023-04-15T02:48:22;11.00;85.90
67050;DHT22;53955;52.442;13.284;2023-04-15T02:50:49;11.20;85.50
67050;DHT22;53955;52.442;13.284;2023-04-15T02:53:17;11.10;85.30
67050;DHT22;53955;52.442;13.284;2023-04-15T02:55:44;11.10;85.50
67050;DHT22;53955;52.442;13.284;2023-04-15T02:58:10;11.10;85.40
67050;DHT22;53955;52.442;13.284;2023-04-15T03:00:37;11.20;85.40
67050;DHT22;53955;52.442;13.284;2023-04-15T03:03:04;11.10;85.70
67050;DHT22;53955;52.442;13.284;2023-04-15T03:05:31;11.20;85.50
67050;DHT22;53955;52.442;13.284;2023-04-15T03:07:58;11.20;85.90
67050;DHT22;53955;52.442;13.284;2023-04-15T03:10:26;11.10;85.50
67050;DHT22;53955;52.442;13.284;2023-04-15T03:12:53;11.10;85.40
67050;DHT22;53955;52.442;13.284;2023-04-15T03:15:20;11.10;85.60
67050;DHT22;53955;52.442;13.284;2023-04-15T03:17:46;11.10;85.90
67050;DHT22;53955;52.442;13.284;2023-04-15T03:20:13;11.10;85.70
67050;DHT22;53955;52.442;13.284;2023-04-15T03:22:41;11.10;85.80
67050;DHT22;53955;52.442;13.284;2023-04-15T03:25:08;11.20;86.10
67050;DHT22;53955;52.442;13.284;2023-04-15T03:27:37;11.10;86.00
67050;DHT22;53955;52.442;13.284;2023-04-15T03:30:04;11.20;85.90
67050;DHT22;53955;52.442;13.284;2023-04-15T03:32:32;11.10;86.10
67050;DHT22;53955;52.442;13.284;2023-04-15T03:34:58;11.10;86.00
67050;DHT22;53955;52.442;13.284;2023-04-15T03:37:25;11.10;86.20
67050;DHT22;53955;52.442;13.284;2023-04-15T03:39:51;11.20;86.20
67050;DHT22;53955;52.442;13.284;2023-04-15T03:42:18;11.20;85.80
67050;DHT22;53955;52.442;13.284;2023-04-15T03:44:46;11.20;86.10
67050;DHT22;53955;52.442;13.284;2023-04-15T03:47:13;11.20;85.60
67050;DHT22;53955;52.442;13.284;2023-04-15T03:49:39;11.20;86.00
67050;DHT22;53955;52.442;13.284;2023-04-15T03:52:06;11.40;85.70
67050;DHT22;53955;52.442;13.284;2023-04-15T03:54:33;11.20;86.10
67050;DHT22;53955;52.442;13.284;2023-04-15T03:56:59;11.20;85.80
67050;DHT22;53955;52.442;13.284;2023-04-15T03:59:26;11.30;85.90
67050;DHT22;53955;52.442;13.284;2023-04-15T04:01:53;11.30;85.80
67050;DHT22;53955;52.442;13.284;2023-04-15T04:04:20;11.30;86.20
67050;DHT22;53955;52.442;13.284;2023-04-15T04:06:47;11.30;85.80
67050;DHT22;53955;52.442;13.284;2023-04-15T04:09:14;11.50;85.50
67050;DHT22;53955;52.442;13.284;2023-04-15T04:11:40;11.40;85.50
67050;DHT22;53955;52.442;13.284;2023-04-15T04:14:07;11.30;85.50
67050;DHT22;53955;52.442;13.284;2023-04-15T04:16:33;11.40;85.90
67050;DHT22;53955;52.442;13.284;2023-04-15T04:19:01;11.40;85.70
67050;DHT22;53955;52.442;13.284;2023-04-15T04:21:28;11.40;85.40
67050;DHT22;53955;52.442;13.284;2023-04-15T04:23:55;11.50;86.10
67050;DHT22;53955;52.442;13.284;2023-04-15T04:26:23;11.50;85.70
67050;DHT22;53955;52.442;13.284;2023-04-15T04:28:49;11.70;85.50
67050;DHT22;53955;52.442;13.284;2023-04-15T04:31:16;11.70;85.70
67050;DHT22;53955;52.442;13.284;2023-04-15T04:33:43;11.70;85.60
67050;DHT22;53955;52.442;13.284;2023-04-15T04:36:11;11.60;85.50
67050;DHT22;53955;52.442;13.284;2023-04-15T04:38:37;11.60;85.60
67050;DHT22;53955;52.442;13.284;2023-04-15T04:41:04;11.60;85.30
67050;DHT22;53955;52.442;13.284;2023-04-15T04:43:31;11.60;85.20
67050;DHT22;53955;52.442;13.284;2023-04-15T04:45:57;11.60;85.40
67050;DHT22;53955;52.442;13.284;2023-04-15T04:48:24;12.10;88.00
67050;DHT22;53955;52.442;13.284;2023-04-15T04:50:51;12.20;85.10
67050;DHT22;53955;52.442;13.284;2023-04-15T04:53:19;12.30;84.60
67050;DHT22;53955;52.442;13.284;2023-04-15T04:55:46;12.30;84.00
67050;DHT22;53955;52.442;13.284;2023-04-15T04:58:12;12.10;84.30
67050;DHT22;53955;52.442;13.284;2023-04-15T05:00:39;12.10;84.30
67050;DHT22;53955;52.442;13.284;2023-04-15T05:03:06;12.10;84.40
67050;DHT22;53955;52.442;13.284;2023-04-15T05:05:33;12.10;84.50
67050;DHT22;53955;52.442;13.284;2023-04-15T05:08:01;12.00;84.60
67050;DHT22;53955;52.442;13.284;2023-04-15T05:10:29;12.00;84.40
67050;DHT22;53955;52.442;13.284;2023-04-15T05:12:55;12.10;84.60
67050;DHT22;53955;52.442;13.284;2023-04-15T05:15:22;12.00;84.80
67050;DHT22;53955;52.442;13.284;2023-04-15T05:17:49;11.90;84.90
67050;DHT22;53955;52.442;13.284;2023-04-15T05:20:15;11.90;84.70
67050;DHT22;53955;52.442;13.284;2023-04-15T05:22:42;11.90;84.50
67050;DHT22;53955;52.442;13.284;2023-04-15T05:25:09;11.90;85.20
67050;DHT22;53955;52.442;13.284;2023-04-15T05:27:37;11.90;85.00
67050;DHT22;53955;52.442;13.284;2023-04-15T05:30:04;11.90;85.10
67050;DHT22;53955;52.442;13.284;2023-04-15T05:32:31;11.90;84.90
67050;DHT22;53955;52.442;13.284;2023-04-15T05:34:58;11.70;85.30
67050;DHT22;53955;52.442;13.284;2023-04-15T05:37:24;11.70;85.50
67050;DHT22;53955;52.442;13.284;2023-04-15T05:39:51;11.90;85.30
67050;DHT22;53955;52.442;13.284;2023-04-15T05:42:18;12.00;85.20
67050;DHT22;53955;52.442;13.284;2023-04-15T05:44:46;11.90;84.90
67050;DHT22;53955;52.442;13.284;2023-04-15T05:47:12;12.00;84.30
67050;DHT22;53955;52.442;13.284;2023-04-15T05:49:39;12.00;84.60
67050;DHT22;53955;52.442;13.284;2023-04-15T05:52:06;12.00;84.70
67050;DHT22;53955;52.442;13.284;2023-04-15T05:54:32;12.10;84.80
67050;DHT22;53955;52.442;13.284;2023-04-15T05:56:59;12.10;84.50
67050;DHT22;53955;52.442;13.284;2023-04-15T05:59:26;12.10;84.40
67050;DHT22;53955;52.442;13.284;2023-04-15T06:01:54;12.30;84.00
67050;DHT22;53955;52.442;13.284;2023-04-15T06:04:20;12.30;83.60
67050;DHT22;53955;52.442;13.284;2023-04-15T06:06:47;12.30;83.90
67050;DHT22;53955;52.442;13.284;2023-04-15T06:09:13;12.50;83.50
67050;DHT22;53955;52.442;13.284;2023-04-15T06:11:41;12.40;83.50
67050;DHT22;53955;52.442;13.284;2023-04-15T06:14:07;12.50;83.90
67050;DHT22;53955;52.442;13.284;2023-04-15T06:16:34;12.40;83.00
67050;DHT22;53955;52.442;13.284;2023-04-15T06:19:03;12.40;82.90
67050;DHT22;53955;52.442;13.284;2023-04-15T06:21:29;12.50;83.10
67050;DHT22;53955;52.442;13.284;2023-04-15T06:23:58;12.40;83.30
67050;DHT22;53955;52.442;13.284;2023-04-15T06:26:25;12.40;82.50
67050;DHT22;53955;52.442;13.284;2023-04-15T06:28:52;12.40;82.70
67050;DHT22;53955;52.442;13.284;2023-04-15T06:31:19;12.40;82.70
67050;DHT22;53955;52.442;13.284;2023-04-15T06:33:46;12.40;82.80
67050;DHT22;53955;52.442;13.284;2023-04-15T06:36:14;12.40;83.00
67050;DHT22;53955;52.442;13.284;2023-04-15T06:38:40;12.40;83.00
67050;DHT22;53955;52.442;13.284;2023-04-15T06:41:07;12.40;82.10
67050;DHT22;53955;52.442;13.284;2023-04-15T06:43:34;12.40;82.00
67050;DHT22;53955;52.442;13.284;2023-04-15T06:46:01;12.60;82.40
67050;DHT22;53955;52.442;13.284;2023-04-15T06:48:27;12.60;82.20
67050;DHT22;53955;52.442;13.284;2023-04-15T06:50:54;12.70;80.40
67050;DHT22;53955;52.442;13.284;2023-04-15T06:53:22;12.80;80.50
67050;DHT22;53955;52.442;13.284;2023-04-15T06:55:48;12.90;79.50
67050;DHT22;53955;52.442;13.284;2023-04-15T06:58:15;13.00;79.20
67050;DHT22;53955;52.442;13.284;2023-04-15T07:00:42;13.10;78.90
67050;DHT22;53955;52.442;13.284;2023-04-15T07:03:09;13.20;78.60
67050;DHT22;53955;52.442;13.284;2023-04-15T07:05:37;13.20;78.30
67050;DHT22;53955;52.442;13.284;2023-04-15T07:08:04;13.20;78.50
67050;DHT22;53955;52.442;13.284;2023-04-15T07:10:32;13.20;78.30
67050;DHT22;53955;52.442;13.284;2023-04-15T07:12:58;13.20;78.50
67050;DHT22;53955;52.442;13.284;2023-04-15T07:15:26;13.10;78.00
67050;DHT22;53955;52.442;13.284;2023-04-15T07:17:53;13.20;78.40
67050;DHT22;53955;52.442;13.284;2023-04-15T07:20:20;13.20;78.00
67050;DHT22;53955;52.442;13.284;2023-04-15T07:22:47;13.30;78.40
67050;DHT22;53955;52.442;13.284;2023-04-15T07:25:13;13.20;78.50
67050;DHT22;53955;52.442;13.284;2023-04-15T07:27:41;13.30;78.20
67050;DHT22;53955;52.442;13.284;2023-04-15T07:30:09;13.10;78.30
67050;DHT22;53955;52.442;13.284;2023-04-15T07:32:36;13.00;78.70
67050;DHT22;53955;52.442;13.284;2023-04-15T07:35:04;13.00;79.10
67050;DHT22;53955;52.442;13.284;2023-04-15T07:37:30;12.90;79.00
67050;DHT22;53955;52.442;13.284;2023-04-15T07:39:57;13.00;78.90
67050;DHT22;53955;52.442;13.284;2023-04-15T07:42:24;12.90;78.40
67050;DHT22;53955;52.442;13.284;2023-04-15T07:44:52;12.90;79.10
67050;DHT22;53955;52.442;13.284;2023-04-15T07:47:19;12.90;78.30
67050;DHT22;53955;52.442;13.284;2023-04-15T07:49:46;12.90;79.10
67050;DHT22;53955;52.442;13.284;2023-04-15T07:52:12;12.80;78.70
67050;DHT22;53955;52.442;13.284;2023-04-15T07:54:39;12.80;78.80
67050;DHT22;53955;52.442;13.284;2023-04-15T07:57:06;12.80;79.00
67050;DHT22;53955;52.442;13.284;2023-04-15T07:59:33;12.70;78.40
67050;DHT22;53955;52.442;13.284;2023-04-15T08:02:01;12.80;78.90
67050;DHT22;53955;52.442;13.284;2023-04-15T08:04:27;12.70;79.10
67050;DHT22;53955;52.442;13.284;2023-04-15T08:06:54;12.70;79.30
67050;DHT22;53955;52.442;13.284;2023-04-15T08:09:21;12.60;80.60
67050;DHT22;53955;52.442;13.284;2023-04-15T08:11:48;12.60;80.70
67050;DHT22;53955;52.442;13.284;2023-04-15T08:14:15;12.70;80.80
67050;DHT22;53955;52.442;13.284;2023-04-15T08:16:41;12.70;79.30
67050;DHT22;53955;52.442;13.284;2023-04-15T08:19:09;12.60;81.00
67050;DHT22;53955;52.442;13.284;2023-04-15T08:21:36;12.40;81.10
67050;DHT22;53955;52.442;13.284;2023-04-15T08:24:03;12.40;81.50
67050;DHT22;53955;52.442;13.284;2023-04-15T08:26:29;12.40;81.80
67050;DHT22;53955;52.442;13.284;2023-04-15T08:28:56;12.60;81.40
67050;DHT22;53955;52.442;13.284;2023-04-15T08:31:26;12.50;81.80
67050;DHT22;53955;52.442;13.284;2023-04-15T08:33:55;12.60;81.00
67050;DHT22;53955;52.442;13.284;2023-04-15T08:36:23;12.60;81.40
67050;DHT22;53955;52.442;13.284;2023-04-15T08:38:51;12.60;80.70
67050;DHT22;53955;52.442;13.284;2023-04-15T08:41:20;12.60;80.00
67050;DHT22;53955;52.442;13.284;2023-04-15T08:43:51;12.60;80.30
67050;DHT22;53955;52.442;13.284;2023-04-15T08:46:19;12.50;80.20
67050;DHT22;53955;52.442;13.284;2023-04-15T08:48:47;12.50;80.90
67050;DHT22;53955;52.442;13.284;2023-04-15T08:51:14;12.60;81.30
67050;DHT22;53955;52.442;13.284;2023-04-15T08:53:43;12.50;80.70
67050;DHT22;53955;52.442;13.284;2023-04-15T08:56:13;12.40;81.20
67050;DHT22;53955;52.442;13.284;2023-04-15T08:58:40;12.50;81.20
67050;DHT22;53955;52.442;13.284;2023-04-15T09:01:07;12.50;80.50
67050;DHT22;53955;52.442;13.284;2023-04-15T09:03:34;12.40;81.10
67050;DHT22;53955;52.442;13.284;2023-04-15T09:06:03;12.50;81.30
67050;DHT22;53955;52.442;13.284;2023-04-15T09:08:30;12.60;80.90
67050;DHT22;53955;52.442;13.284;2023-04-15T09:10:58;12.50;81.00
67050;DHT22;53955;52.442;13.284;2023-04-15T09:13:24;12.40;81.70
67050;DHT22;53955;52.442;13.284;2023-04-15T09:15:52;12.50;81.30
67050;DHT22;53955;52.442;13.284;2023-04-15T09:18:29;12.50;81.10
67050;DHT22;53955;52.442;13.284;2023-04-15T09:21:03;12.60;81.20
67050;DHT22;53955;52.442;13.284;2023-04-15T09:23:31;12.60;81.20
67050;DHT22;53955;52.442;13.284;2023-04-15T09:25:59;12.60;81.40
67050;DHT22;53955;52.442;13.284;2023-04-15T09:28:27;12.70;79.90
67050;DHT22;53955;52.442;13.284;2023-04-15T09:30:57;12.70;80.00
67050;DHT22;53955;52.442;13.284;2023-04-15T09:33:24;12.60;81.40
67050;DHT22;53955;52.442;13.284;2023-04-15T09:35:59;12.60;81.30
67050;DHT22;53955;52.442;13.284;2023-04-15T09:38:26;12.50;81.70
67050;DHT22;53955;52.442;13.284;2023-04-15T09:40:53;12.60;82.30
67050;DHT22;53955;52.442;13.284;2023-04-15T09:43:22;12.60;82.30
67050;DHT22;53955;52.442;13.284;2023-04-15T09:45:51;12.70;82.30
67050;DHT22;53955;52.442;13.284;2023-04-15T09:48:20;12.70;80.80
67050;DHT22;53955;52.442;13.284;2023-04-15T09:50:48;12.80;81.30
67050;DHT22;53955;52.442;13.284;2023-04-15T09:53:16;12.70;81.40
67050;DHT22;53955;52.442;13.284;2023-04-15T09:55:45;12.70;81.30
67050;DHT22;53955;52.442;13.284;2023-04-15T09:58:20;12.70;82.40
67050;DHT22;53955;52.442;13.284;2023-04-15T10:00:49;12.80;81.60
67050;DHT22;53955;52.442;13.284;2023-04-15T10:03:18;12.80;81.80
67050;DHT22;53955;52.442;13.284;2023-04-15T10:05:47;12.80;81.40
67050;DHT22;53955;52.442;13.284;2023-04-15T10:08:16;12.80;81.90
67050;DHT22;53955;52.442;13.284;2023-04-15T10:10:44;12.90;82.00
67050;DHT22;53955;52.442;13.284;2023-04-15T10:13:11;12.90;81.30
67050;DHT22;53955;52.442;13.284;2023-04-15T10:15:42;12.80;81.30
67050;DHT22;53955;52.442;13.284;2023-04-15T10:18:10;12.80;81.60
67050;DHT22;53955;52.442;13.284;2023-04-15T10:20:38;12.70;81.60
67050;DHT22;53955;52.442;13.284;2023-04-15T10:23:06;12.80;81.60
67050;DHT22;53955;52.442;13.284;2023-04-15T10:25:34;12.80;82.20
67050;DHT22;53955;52.442;13.284;2023-04-15T10:28:02;12.70;81.90
67050;DHT22;53955;52.442;13.284;2023-04-15T10:30:29;12.80;82.40
67050;DHT22;53955;52.442;13.284;2023-04-15T10:32:58;12.80;82.10
67050;DHT22;53955;52.442;13.284;2023-04-15T10:35:25;12.70;81.90
67050;DHT22;53955;52.442;13.284;2023-04-15T10:37:53;12.80;82.60
67050;DHT22;53955;52.442;13.284;2023-04-15T10:40:27;12.80;82.40
67050;DHT22;53955;52.442;13.284;2023-04-15T10:42:57;12.80;82.80
67050;DHT22;53955;52.442;13.284;2023-04-15T10:45:25;12.90;83.10
67050;DHT22;53955;52.442;13.284;2023-04-15T10:47:54;12.80;82.50
67050;DHT22;53955;52.442;13.284;2023-04-15T10:50:24;12.90;82.80
67050;DHT22;53955;52.442;13.284;2023-04-15T10:52:52;12.90;83.00
67050;DHT22;53955;52.442;13.284;2023-04-15T10:55:20;13.00;82.90
67050;DHT22;53955;52.442;13.284;2023-04-15T10:57:51;13.00;83.00
67050;DHT22;53955;52.442;13.284;2023-04-15T11:00:19;13.00;83.40
67050;DHT22;53955;52.442;13.284;2023-04-15T11:02:47;13.10;83.50
67050;DHT22;53955;52.442;13.284;2023-04-15T11:05:14;13.00;83.30
67050;DHT22;53955;52.442;13.284;2023-04-15T11:07:55;13.00;83.00
67050;DHT22;53955;52.442;13.284;2023-04-15T11:10:50;13.00;82.90
67050;DHT22;53955;52.442;13.284;2023-04-15T11:13:20;12.90;83.20
67050;DHT22;53955;52.442;13.284;2023-04-15T11:15:48;13.00;83.20
67050;DHT22;53955;52.442;13.284;2023-04-15T11:18:17;12.90;83.30
67050;DHT22;53955;52.442;13.284;2023-04-15T11:20:45;13.00;83.10
67050;DHT22;53955;52.442;13.284;2023-04-15T11:23:13;13.00;83.00
67050;DHT22;53955;52.442;13.284;2023-04-15T11:25:41;13.00;83.30
67050;DHT22;53955;52.442;13.284;2023-04-15T11:28:08;13.00;83.60
67050;DHT22;53955;52.442;13.284;2023-04-15T11:30:37;13.00;83.20
67050;DHT22;53955;52.442;13.284;2023-04-15T11:33:05;12.90;83.40
67050;DHT22;53955;52.442;13.284;2023-04-15T11:35:33;12.90;83.80
67050;DHT22;53955;52.442;13.284;2023-04-15T11:38:02;13.00;83.60
67050;DHT22;53955;52.442;13.284;2023-04-15T11:40:31;12.90;84.00
67050;DHT22;53955;52.442;13.284;2023-04-15T11:43:04;12.90;84.30
67050;DHT22;53955;52.442;13.284;2023-04-15T11:45:30;12.90;84.10
67050;DHT22;53955;52.442;13.284;2023-04-15T11:48:05;12.90;84.20
67050;DHT22;53955;52.442;13.284;2023-04-15T11:50:32;13.00;83.90
67050;DHT22;53955;52.442;13.284;2023-04-15T11:53:02;13.00;84.00
67050;DHT22;53955;52.442;13.284;2023-04-15T11:55:29;13.00;83.80
67050;DHT22;53955;52.442;13.284;2023-04-15T11:58:07;12.90;84.10
67050;DHT22;53955;52.442;13.284;2023-04-15T12:00:34;13.00;84.30
67050;DHT22;53955;52.442;13.284;2023-04-15T12:03:11;13.10;84.00
67050;DHT22;53955;52.442;13.284;2023-04-15T12:06:05;13.10;84.50
67050;DHT22;53955;52.442;13.284;2023-04-15T12:08:55;13.20;84.00
67050;DHT22;53955;52.442;13.284;2023-04-15T12:11:33;13.20;84.00
67050;DHT22;53955;52.442;13.284;2023-04-15T12:14:07;13.30;83.90
67050;DHT22;53955;52.442;13.284;2023-04-15T12:16:35;13.30;84.00
67050;DHT22;53955;52.442;13.284;2023-04-15T12:19:05;13.40;84.00
67050;DHT22;53955;52.442;13.284;2023-04-15T12:21:34;13.40;83.90
67050;DHT22;53955;52.442;13.284;2023-04-15T12:24:02;13.40;83.80
67050;DHT22;53955;52.442;13.284;2023-04-15T12:26:30;13.40;83.70
67050;DHT22;53955;52.442;13.284;2023-04-15T12:29:00;13.40;83.90
67050;DHT22;53955;52.442;13.284;2023-04-15T12:31:28;13.40;84.20
67050;DHT22;53955;52.442;13.284;2023-04-15T12:33:55;13.40;83.60
67050;DHT22;53955;52.442;13.284;2023-04-15T12:36:22;13.50;83.90
67050;DHT22;53955;52.442;13.284;2023-04-15T12:38:49;13.50;84.00
67050;DHT22;53955;52.442;13.284;2023-04-15T12:41:15;13.50;83.70
67050;DHT22;53955;52.442;13.284;2023-04-15T12:43:43;13.40;83.70
67050;DHT22;53955;52.442;13.284;2023-04-15T12:46:10;13.60;84.10
67050;DHT22;53955;52.442;13.284;2023-04-15T12:48:38;13.70;84.20
67050;DHT22;53955;52.442;13.284;2023-04-15T12:51:05;13.70;83.80
67050;DHT22;53955;52.442;13.284;2023-04-15T12:53:32;13.70;83.10
67050;DHT22;53955;52.442;13.284;2023-04-15T12:55:59;13.70;83.40
67050;DHT22;53955;52.442;13.284;2023-04-15T12:58:25;13.70;83.60
67050;DHT22;53955;52.442;13.284;2023-04-15T13:00:52;13.80;83.30
67050;DHT22;53955;52.442;13.284;2023-04-15T13:03:18;13.80;83.20
67050;DHT22;53955;52.442;13.284;2023-04-15T13:05:46;13.70;83.80
67050;DHT22;53955;52.442;13.284;2023-04-15T13:08:13;13.80;83.20
67050;DHT22;53955;52.442;13.284;2023-04-15T13:10:40;13.90;83.70
67050;DHT22;53955;52.442;13.284;2023-04-15T13:13:07;13.80;83.90
67050;DHT22;53955;52.442;13.284;2023-04-15T13:15:34;13.80;83.50
67050;DHT22;53955;52.442;13.284;2023-04-15T13:18:01;13.70;82.60
67050;DHT22;53955;52.442;13.284;2023-04-15T13:20:27;13.70;83.30
67050;DHT22;53955;52.442;13.284;2023-04-15T13:22:56;13.70;83.40
67050;DHT22;53955;52.442;13.284;2023-04-15T13:25:22;13.70;83.60
67050;DHT22;53955;52.442;13.284;2023-04-15T13:27:50;13.60;83.50
67050;DHT22;53955;52.442;13.284;2023-04-15T13:30:17;13.70;83.00
67050;DHT22;53955;52.442;13.284;2023-04-15T13:32:43;13.70;83.30
67050;DHT22;53955;52.442;13.284;2023-04-15T13:35:10;13.70;84.00
67050;DHT22;53955;52.442;13.284;2023-04-15T13:37:37;13.70;84.00
67050;DHT22;53955;52.442;13.284;2023-04-15T13:40:06;13.70;83.20
67050;DHT22;53955;52.442;13.284;2023-04-15T13:42:33;13.70;83.30
67050;DHT22;53955;52.442;13.284;2023-04-15T13:44:59;13.70;83.50
67050;DHT22;53955;52.442;13.284;2023-04-15T13:47:26;13.70;83.60
67050;DHT22;53955;52.442;13.284;2023-04-15T13:49:53;13.60;83.60
67050;DHT22;53955;52.442;13.284;2023-04-15T13:52:21;13.50;83.50
67050;DHT22;53955;52.442;13.284;2023-04-15T13:54:47;13.50;84.20
67050;DHT22;53955;52.442;13.284;2023-04-15T13:57:15;13.50;84.50
67050;DHT22;53955;52.442;13.284;2023-04-15T13:59:42;13.50;84.70
67050;DHT22;53955;52.442;13.284;2023-04-15T14:02:09;13.50;84.60
67050;DHT22;53955;52.442;13.284;2023-04-15T14:04:36;13.50;84.70
67050;DHT22;53955;52.442;13.284;2023-04-15T14:07:02;13.60;84.30
67050;DHT22;53955;52.442;13.284;2023-04-15T14:09:29;13.50;84.30
67050;DHT22;53955;52.442;13.284;2023-04-15T14:11:55;13.50;84.40
67050;DHT22;53955;52.442;13.284;2023-04-15T14:14:25;13.50;84.30
67050;DHT22;53955;52.442;13.284;2023-04-15T14:16:51;13.60;83.30
67050;DHT22;53955;52.442;13.284;2023-04-15T14:19:18;13.50;83.90
67050;DHT22;53955;52.442;13.284;2023-04-15T14:21:45;13.50;83.70
67050;DHT22;53955;52.442;13.284;2023-04-15T14:24:11;13.50;84.40
67050;DHT22;53955;52.442;13.284;2023-04-15T14:26:38;13.50;84.60
67050;DHT22;53955;52.442;13.284;2023-04-15T14:29:05;13.50;84.50
67050;DHT22;53955;52.442;13.284;2023-04-15T14:31:33;13.50;85.10
67050;DHT22;53955;52.442;13.284;2023-04-15T14:33:59;13.50;85.10
67050;DHT22;53955;52.442;13.284;2023-04-15T14:36:26;13.50;84.90
67050;DHT22;53955;52.442;13.284;2023-04-15T14:38:53;13.40;84.70
67050;DHT22;53955;52.442;13.284;2023-04-15T14:41:20;13.30;84.90
67050;DHT22;53955;52.442;13.284;2023-04-15T14:43:47;13.30;84.80
67050;DHT22;53955;52.442;13.284;2023-04-15T14:46:14;13.30;85.20
67050;DHT22;53955;52.442;13.284;2023-04-15T14:48:42;13.10;85.40
67050;DHT22;53955;52.442;13.284;2023-04-15T14:51:09;13.20;85.30
67050;DHT22;53955;52.442;13.284;2023-04-15T14:53:36;13.20;85.40
67050;DHT22;53955;52.442;13.284;2023-04-15T14:56:02;13.20;84.60
67050;DHT22;53955;52.442;13.284;2023-04-15T14:58:29;13.20;85.60
67050;DHT22;53955;52.442;13.284;2023-04-15T15:00:57;13.20;85.30
67050;DHT22;53955;52.442;13.284;2023-04-15T15:03:23;13.20;85.50
67050;DHT22;53955;52.442;13.284;2023-04-15T15:05:51;13.40;85.50
67050;DHT22;53955;52.442;13.284;2023-04-15T15:08:18;13.40;85.50
67050;DHT22;53955;52.442;13.284;2023-04-15T15:10:45;13.30;85.40
67050;DHT22;53955;52.442;13.284;2023-04-15T15:13:11;13.30;85.10
67050;DHT22;53955;52.442;13.284;2023-04-15T15:15:38;13.30;85.70
67050;DHT22;53955;52.442;13.284;2023-04-15T15:18:05;13.30;86.20